Vance Air Force Base
KEND : now visible

Airfield :











YOU CAN JOIN US ON...

 
LOGIN :

Register | Disclaimer

   EN    FR    IT 

 









Legend :    VFR   Marginal VFR   IFR   Intensive IFR   Very Intensive IFR
Visi :
Ceiling :
>= 8 km
>= 3000ft
5 to 8 km
1000 to 3000 ft
1500m to 5 km
500 to 1000 ft
800 to 1500m
200 to 500 ft
< 800m
< 200 ft
Symbols :   Thunderstorms  Fog  Heavy snow  Heavy precipitations  Wind > 20 kt






- Airport Elevation : 1307 ft


KEND - Vance Air Force Base

CURRENT METAR :
  • 111256Z AUTO 07005KT 10SM OVC110 21/21 A2998 RMK AO2 SLP140 T02050205 $

EXPIRED METARs :
  • 111156Z AUTO 21004KT 10SM OVC120 20/20 A2994 RMK AO2 SLP126 60008 70057 T02010201 10201 20193 52010 $
  • 111056Z AUTO 33005KT 10SM OVC140 20/20 A2993 RMK AO2 SLP122 T01990199 $

TAF TAF KEND
Valid from the 11 at 10:00 until the 12 at 16:00 UTC


111000Z 1110/1216 VRB06KT 9999 SCT100 SCT250 QNH2989INS
BECMG 1115/1116 VRB06KT 9999 FEW040 FEW100 SCT250 QNH2986INS
BECMG 1120/1121 18012KT 9999 FEW060 FEW100 SCT250 QNH2983INS TX37/1120Z TN25/1112Z
KZKC FIR / North America



MET'MAP, your aeronautical weather chart ! - Copyright ORBIFLY December 2007 - Disclaimer

ORBIFLY MET'MAP TEAM :

Programming & Development : Alexandra Zaïnal
Concept & original design : Baudouin d'Aumeries
Assistance for programming : Marc-Olivier Méhu
Technical & hardware support : Manuel Goepfert

Contact : metmap@orbifly.com




SOURCES & CREDITS :

   NOAA       Earth
Advisory